Time;durP1;ratioP1;P1;durP2;ratioP2;P2;SDS_P1;SDS_P2;PMS_P1;PMS_P2;Temp;Humidity;BMP_temperature;BMP_pressure;BME280_temperature;BME280_humidity;BME280_pressure;Samples;Min_cycle;Max_cycle;Signal;HPM_P1;HPM_P2
2022/08/29 00:00:23;;;;;;;0.00;0.00;;;15.60;99.90;14.70;97488.00;;;;4994230;28;20200;-75
2022/08/29 00:02:55;;;;;;;0.00;0.00;;;15.60;99.90;14.70;97490.00;;;;4993309;28;20259;-76
2022/08/29 00:05:29;;;;;;;0.00;0.00;;;15.60;99.90;14.50;97460.00;;;;4993622;28;20216;-75
2022/08/29 00:07:58;;;;;;;0.00;0.00;;;15.50;99.90;14.60;97473.00;;;;4992818;28;20232;-72
2022/08/29 00:10:27;;;;;;;0.00;0.00;;;15.50;99.90;14.60;97473.00;;;;4992759;28;20204;-73
2022/08/29 00:12:55;;;;;;;0.00;0.00;;;15.40;99.90;14.40;97465.00;;;;4994103;28;20201;-73
2022/08/29 00:15:26;;;;;;;0.03;0.03;;;15.30;99.90;14.30;97446.00;;;;4993099;28;20204;-73
2022/08/29 00:17:54;;;;;;;0.00;0.00;;;15.20;99.90;14.40;97471.00;;;;4993274;28;20232;-73
2022/08/29 00:20:27;;;;;;;0.00;0.00;;;15.30;99.90;14.50;97456.00;;;;4993138;28;20220;-73
2022/08/29 00:23:02;;;;;;;0.03;0.03;;;15.40;99.90;14.60;97469.00;;;;4992567;28;20192;-72
2022/08/29 00:25:31;;;;;;;0.00;0.00;;;15.40;99.90;14.50;97464.00;;;;4993046;28;20200;-76
2022/08/29 00:27:59;;;;;;;0.00;0.00;;;15.30;99.90;14.50;97454.00;;;;4992998;28;20765;-74
2022/08/29 00:30:29;;;;;;;0.00;0.00;;;15.30;99.90;14.50;97474.00;;;;4992980;28;20204;-73
2022/08/29 00:32:57;;;;;;;0.00;0.00;;;15.20;99.90;14.50;97475.00;;;;4992742;28;20188;-75
2022/08/29 00:35:29;;;;;;;0.00;0.00;;;15.30;99.90;14.60;97464.00;;;;4993193;28;20205;-75
2022/08/29 00:37:59;;;;;;;0.00;0.00;;;15.30;99.90;14.50;97456.00;;;;4992447;28;20228;-74
2022/08/29 00:40:31;;;;;;;0.00;0.00;;;15.30;99.90;14.40;97455.00;;;;4992168;28;20583;-74
2022/08/29 00:43:00;;;;;;;0.10;0.10;;;15.20;99.90;14.50;97474.00;;;;4993350;28;20279;-73
2022/08/29 00:45:31;;;;;;;0.00;0.00;;;15.20;99.90;14.50;97475.00;;;;4992552;28;20201;-75
2022/08/29 00:48:04;;;;;;;0.00;0.00;;;15.20;99.90;14.40;97457.00;;;;4992287;28;20228;-74
2022/08/29 00:50:38;;;;;;;0.00;0.00;;;15.10;99.90;14.50;97471.00;;;;4992142;28;20934;-74
2022/08/29 00:53:11;;;;;;;0.00;0.00;;;15.30;99.90;14.40;97427.00;;;;4992503;28;20208;-74
2022/08/29 00:55:41;;;;;;;0.00;0.00;;;15.30;99.90;14.30;97468.00;;;;4992891;28;20196;-75
2022/08/29 00:58:25;;;;;;;0.00;0.00;;;15.20;99.90;14.30;97429.00;;;;4991422;28;20224;-75
2022/08/29 01:00:55;;;;;;;0.00;0.00;;;15.20;99.90;14.20;97447.00;;;;4993218;28;20207;-75
2022/08/29 01:03:24;;;;;;;0.00;0.00;;;15.00;99.90;14.00;97447.00;;;;4992039;28;20196;-75
2022/08/29 01:05:52;;;;;;;0.10;0.10;;;14.80;99.90;13.90;97475.00;;;;4992474;28;20200;-75
2022/08/29 01:08:20;;;;;;;0.10;0.10;;;14.70;99.90;14.00;97479.00;;;;4992822;28;20228;-75
2022/08/29 01:13:41;;;;;;;0.00;0.00;;;14.80;99.90;13.90;97458.00;;;;4991766;28;20200;-75
2022/08/29 01:16:13;;;;;;;0.05;0.05;;;14.80;99.90;13.90;97483.00;;;;4991750;28;20204;-74
2022/08/29 01:18:46;;;;;;;0.10;0.10;;;14.80;99.90;13.80;97481.00;;;;4991105;28;20236;-74
2022/08/29 01:21:34;;;;;;;0.00;0.00;;;14.60;99.90;13.70;97489.00;;;;4998374;28;20284;-74
2022/08/29 01:24:11;;;;;;;0.00;0.00;;;14.60;99.90;13.70;97495.00;;;;4997898;28;20239;-74
2022/08/29 01:26:41;;;;;;;0.00;0.00;;;14.60;99.90;13.70;97495.00;;;;5003248;28;20215;-74
2022/08/29 01:29:10;;;;;;;0.00;0.00;;;14.60;99.90;13.70;97512.00;;;;5003085;28;20235;-74
2022/08/29 01:31:42;;;;;;;0.00;0.00;;;14.50;99.90;13.60;97498.00;;;;4998333;28;20297;-74
2022/08/29 01:34:27;;;;;;;0.00;0.00;;;14.40;99.90;13.60;97478.00;;;;4990921;28;20554;-74
2022/08/29 01:37:00;;;;;;;0.00;0.00;;;14.40;99.90;13.60;97501.00;;;;4991532;28;20330;-75
2022/08/29 01:39:33;;;;;;;0.00;0.00;;;14.40;99.90;13.60;97488.00;;;;4988701;28;20295;-75
2022/08/29 01:42:08;;;;;;;0.00;0.00;;;14.40;99.90;13.60;97499.00;;;;4991326;28;20200;-74
2022/08/29 01:44:37;;;;;;;0.10;0.10;;;14.50;99.90;13.60;97511.00;;;;4991390;28;20203;-75
2022/08/29 01:47:10;;;;;;;0.10;0.10;;;14.50;99.90;13.60;97510.00;;;;4992493;28;20275;-75
2022/08/29 01:49:38;;;;;;;0.00;0.00;;;14.50;99.90;13.60;97495.00;;;;4994265;28;20219;-74
2022/08/29 01:52:08;;;;;;;0.00;0.00;;;14.40;99.90;13.60;97497.00;;;;4996780;28;20200;-75
2022/08/29 01:54:36;;;;;;;0.08;0.08;;;14.40;99.90;13.60;97501.00;;;;4991420;28;20267;-75
2022/08/29 01:57:06;;;;;;;0.00;0.00;;;14.50;99.90;13.50;97495.00;;;;4991503;28;20207;-75
2022/08/29 01:59:40;;;;;;;0.00;0.00;;;14.40;99.90;13.40;97500.00;;;;4990936;28;20699;-75
2022/08/29 02:02:14;;;;;;;0.00;0.00;;;14.20;99.90;13.30;97500.00;;;;4991132;28;20622;-75
2022/08/29 02:04:44;;;;;;;0.00;0.00;;;14.20;99.90;13.30;97500.00;;;;4991385;28;20698;-75
2022/08/29 02:07:12;;;;;;;0.10;0.10;;;14.10;99.90;13.30;97510.00;;;;4991175;28;20201;-75
2022/08/29 02:09:43;;;;;;;0.10;0.10;;;14.10;99.90;13.20;97510.00;;;;4991471;28;20307;-73
2022/08/29 02:12:15;;;;;;;0.00;0.00;;;14.10;99.90;13.20;97509.00;;;;4989835;28;20602;-71
2022/08/29 02:14:44;;;;;;;0.00;0.00;;;14.00;99.90;13.20;97457.00;;;;4990974;28;20654;-74
2022/08/29 02:17:12;;;;;;;0.00;0.00;;;14.00;99.90;13.20;97495.00;;;;4991443;28;20734;-74
2022/08/29 02:19:42;;;;;;;0.10;0.10;;;14.00;99.90;13.20;97498.00;;;;4991371;28;20220;-74
2022/08/29 02:22:10;;;;;;;0.00;0.00;;;14.00;99.90;13.20;97511.00;;;;4990823;28;20200;-74
2022/08/29 02:24:39;;;;;;;0.00;0.00;;;14.00;99.90;13.10;97502.00;;;;4990346;28;20714;-73
2022/08/29 02:27:08;;;;;;;0.10;0.10;;;14.00;99.90;13.10;97495.00;;;;4991466;28;20200;-73
2022/08/29 02:29:38;;;;;;;0.00;0.00;;;14.00;99.90;13.10;97503.00;;;;4991557;28;20320;-74
2022/08/29 02:32:10;;;;;;;0.10;0.10;;;14.00;99.90;13.10;97516.00;;;;4995560;28;20215;-74
2022/08/29 02:34:42;;;;;;;0.10;0.10;;;13.90;99.90;13.10;97520.00;;;;4989839;28;20278;-74
2022/08/29 02:37:14;;;;;;;0.10;0.10;;;13.90;99.90;13.10;97504.00;;;;4990902;28;20196;-74
2022/08/29 02:39:42;;;;;;;0.00;0.00;;;13.90;99.90;13.00;97519.00;;;;4991786;28;20228;-74
2022/08/29 02:42:10;;;;;;;0.08;0.08;;;13.80;99.90;13.00;97513.00;;;;4991478;28;20200;-73
2022/08/29 02:44:39;;;;;;;0.10;0.10;;;13.80;99.90;13.00;97515.00;;;;4991900;28;20204;-73
2022/08/29 02:47:08;;;;;;;0.10;0.10;;;13.80;99.90;13.00;97501.00;;;;4991267;28;20200;-74
2022/08/29 02:49:37;;;;;;;0.10;0.10;;;13.80;99.90;12.90;97524.00;;;;4991289;28;20246;-74
2022/08/29 02:52:07;;;;;;;0.00;0.00;;;13.80;99.90;12.90;97526.00;;;;4991028;28;20837;-74
2022/08/29 02:54:35;;;;;;;0.00;0.00;;;13.80;99.90;12.90;97528.00;;;;4991243;28;20205;-74
2022/08/29 02:57:04;;;;;;;0.00;0.00;;;13.70;99.90;12.90;97521.00;;;;4993452;28;20569;-74
2022/08/29 02:59:32;;;;;;;0.10;0.10;;;13.70;99.90;12.80;97517.00;;;;4991365;28;20228;-74
2022/08/29 03:02:02;;;;;;;0.00;0.00;;;13.70;99.90;12.80;97464.00;;;;4991597;28;20703;-75
2022/08/29 03:04:30;;;;;;;0.10;0.10;;;13.60;99.90;12.80;97464.00;;;;4990191;28;20624;-75
2022/08/29 03:06:58;;;;;;;0.10;0.10;;;13.60;99.90;12.80;97467.00;;;;4991270;28;20208;-72
2022/08/29 03:09:26;;;;;;;0.03;0.03;;;13.60;99.90;12.80;97468.00;;;;4990837;28;20247;-74
2022/08/29 03:11:55;;;;;;;0.00;0.00;;;13.60;99.90;12.80;97479.00;;;;4990936;28;20567;-72
2022/08/29 03:14:23;;;;;;;0.10;0.10;;;13.70;99.90;12.70;97488.00;;;;4994589;28;20211;-72
2022/08/29 03:16:51;;;;;;;0.10;0.10;;;13.60;99.90;12.80;97472.00;;;;4993798;28;20207;-73
2022/08/29 03:19:21;;;;;;;0.05;0.05;;;13.70;99.90;12.90;97490.00;;;;4995233;28;20228;-73
2022/08/29 03:21:49;;;;;;;0.00;0.00;;;13.80;99.90;12.80;97492.00;;;;4996817;28;20267;-71
2022/08/29 03:24:17;;;;;;;0.10;0.10;;;13.80;99.90;12.70;97489.00;;;;4999578;28;20580;-72
2022/08/29 03:26:53;;;;;;;0.10;0.10;;;13.80;99.90;12.60;97473.00;;;;5000146;28;20196;-73
2022/08/29 03:29:24;;;;;;;0.00;0.00;;;13.70;99.90;12.60;97466.00;;;;4999918;28;20259;-72
2022/08/29 03:31:52;;;;;;;0.00;0.00;;;13.60;99.90;12.60;97482.00;;;;4994398;28;20211;-74
2022/08/29 03:34:21;;;;;;;0.03;0.03;;;13.60;99.90;12.60;97478.00;;;;4990555;28;20664;-73
2022/08/29 03:36:49;;;;;;;0.00;0.00;;;13.50;99.90;12.60;97475.00;;;;4993834;28;20204;-75
2022/08/29 03:39:17;;;;;;;0.10;0.10;;;13.50;99.90;12.60;97465.00;;;;4993059;28;20743;-73
2022/08/29 03:41:46;;;;;;;0.00;0.00;;;13.50;99.90;12.50;97496.00;;;;4993618;28;20204;-75
2022/08/29 03:44:14;;;;;;;0.10;0.10;;;13.40;99.90;12.70;97487.00;;;;4993996;28;20200;-73
2022/08/29 03:46:42;;;;;;;0.00;0.00;;;13.60;99.90;12.70;97497.00;;;;4993240;28;20204;-73
2022/08/29 03:49:10;;;;;;;0.08;0.08;;;13.60;99.90;12.80;97489.00;;;;4993018;28;20583;-73
2022/08/29 03:51:41;;;;;;;0.10;0.10;;;13.60;99.90;12.80;97493.00;;;;4993771;28;20201;-72
2022/08/29 03:54:09;;;;;;;0.08;0.08;;;13.70;99.90;12.90;97497.00;;;;4993461;28;20207;-72
2022/08/29 03:56:37;;;;;;;0.00;0.00;;;13.70;99.90;12.90;97495.00;;;;4991489;28;20200;-73
2022/08/29 03:59:05;;;;;;;0.00;0.00;;;13.70;99.90;13.00;97504.00;;;;4994108;28;20224;-73
2022/08/29 04:01:33;;;;;;;0.10;0.10;;;13.80;99.90;12.90;97512.00;;;;4992267;28;20209;-73
2022/08/29 04:04:01;;;;;;;0.00;0.00;;;13.80;99.90;12.90;97509.00;;;;4993459;28;20196;-73
2022/08/29 04:06:29;;;;;;;0.10;0.10;;;13.70;99.90;12.90;97512.00;;;;4993628;28;20200;-75
2022/08/29 04:08:58;;;;;;;0.10;0.10;;;13.70;99.90;12.80;97514.00;;;;4993779;28;20607;-72
2022/08/29 04:11:28;;;;;;;0.00;0.00;;;13.60;99.90;12.80;97513.00;;;;4993688;28;20218;-73
2022/08/29 04:13:56;;;;;;;0.10;0.10;;;13.60;99.90;12.80;97520.00;;;;4994159;28;20201;-73
2022/08/29 04:16:28;;;;;;;0.00;0.00;;;13.60;99.90;12.90;97481.00;;;;4990762;28;20197;-75
2022/08/29 04:18:58;;;;;;;0.10;0.10;;;13.60;99.90;12.80;97532.00;;;;4992636;28;20318;-76
2022/08/29 04:21:27;;;;;;;0.00;0.00;;;13.60;99.90;12.80;97531.00;;;;4992074;28;20722;-73
2022/08/29 04:23:55;;;;;;;0.10;0.10;;;13.60;99.90;12.80;97527.00;;;;4989367;28;20196;-73
2022/08/29 04:26:24;;;;;;;0.03;0.03;;;13.60;99.90;12.80;97523.00;;;;4991733;28;20204;-75
2022/08/29 04:29:11;;;;;;;0.00;0.00;;;13.60;99.90;12.70;97530.00;;;;4993103;28;20609;-73
2022/08/29 04:31:41;;;;;;;0.00;0.00;;;13.50;99.90;12.60;97528.00;;;;4977077;28;20209;-73
2022/08/29 04:34:12;;;;;;;0.00;0.00;;;13.40;99.90;12.60;97519.00;;;;4993613;28;20324;-74
2022/08/29 04:36:44;;;;;;;0.00;0.00;;;13.50;99.90;12.40;97549.00;;;;4992751;28;20203;-73
2022/08/29 04:39:13;;;;;;;0.10;0.10;;;13.20;99.90;12.30;97548.00;;;;4994782;28;20775;-76
2022/08/29 04:41:43;;;;;;;0.00;0.00;;;13.10;99.90;12.20;97530.00;;;;4993844;28;20200;-76
2022/08/29 04:44:13;;;;;;;0.10;0.10;;;13.10;99.90;12.20;97539.00;;;;4992044;28;20196;-75
2022/08/29 04:46:41;;;;;;;0.03;0.03;;;13.10;99.90;12.20;97542.00;;;;4992363;28;20206;-75
2022/08/29 04:49:09;;;;;;;0.00;0.00;;;13.10;99.90;12.20;97550.00;;;;4992321;28;20217;-76
2022/08/29 04:51:37;;;;;;;0.10;0.10;;;13.00;99.90;12.20;97550.00;;;;4993437;28;20659;-74
2022/08/29 04:54:06;;;;;;;0.10;0.10;;;13.00;99.90;12.20;97547.00;;;;4992276;28;20204;-74
2022/08/29 04:56:36;;;;;;;0.10;0.10;;;13.10;99.90;12.30;97557.00;;;;4993331;28;20196;-75
2022/08/29 04:59:08;;;;;;;0.05;0.05;;;13.20;99.90;12.20;97550.00;;;;4993540;28;20212;-74
2022/08/29 05:01:36;;;;;;;0.10;0.10;;;13.20;99.90;12.20;97560.00;;;;4993461;28;20663;-74
2022/08/29 05:04:05;;;;;;;0.10;0.10;;;13.20;99.90;12.20;97561.00;;;;4994138;28;20192;-73
2022/08/29 05:06:33;;;;;;;0.10;0.10;;;13.10;99.90;12.20;97552.00;;;;4993489;28;20199;-73
2022/08/29 05:09:01;;;;;;;0.10;0.10;;;13.10;99.90;12.30;97554.00;;;;4992145;28;20570;-74
2022/08/29 05:11:31;;;;;;;0.00;0.00;;;13.10;99.90;12.30;97563.00;;;;4993540;28;20203;-76
2022/08/29 05:14:01;;;;;;;0.00;0.00;;;13.20;99.90;12.30;97520.00;;;;4993561;28;20204;-76
2022/08/29 05:16:35;;;;;;;0.10;0.10;;;13.20;99.90;12.30;97568.00;;;;4992688;28;20192;-75
2022/08/29 05:19:06;;;;;;;0.00;0.00;;;13.10;99.90;12.30;97560.00;;;;4993025;28;20730;-76
2022/08/29 05:21:38;;;;;;;0.00;0.00;;;13.10;99.90;12.30;97567.00;;;;4991290;28;20243;-77
2022/08/29 05:24:10;;;;;;;0.10;0.10;;;13.30;99.90;12.50;97569.00;;;;4993616;28;20216;-78
2022/08/29 05:26:48;;;;;;;0.10;0.10;;;13.40;99.90;12.50;97567.00;;;;4995050;28;20560;-78
2022/08/29 05:29:19;;;;;;;0.00;0.00;;;13.40;99.90;12.30;97563.00;;;;4995387;28;20322;-76
2022/08/29 05:31:49;;;;;;;0.10;0.10;;;13.30;99.90;12.40;97575.00;;;;4993250;28;20586;-75
2022/08/29 05:34:17;;;;;;;0.00;0.00;;;13.30;99.90;12.40;97583.00;;;;4992283;28;20200;-77
2022/08/29 05:37:05;;;;;;;0.00;0.00;;;13.30;99.90;12.40;97600.00;;;;4993645;28;20188;-78
2022/08/29 05:39:35;;;;;;;0.00;0.00;;;13.30;99.90;12.40;97599.00;;;;4992750;28;20227;-75
2022/08/29 05:42:04;;;;;;;0.10;0.10;;;13.30;99.90;12.40;97596.00;;;;4993063;28;20200;-74
2022/08/29 05:44:35;;;;;;;0.10;0.10;;;13.20;99.90;12.30;97602.00;;;;4992557;28;20196;-73
2022/08/29 05:47:08;;;;;;;0.00;0.00;;;13.10;99.90;12.30;97600.00;;;;4992810;28;20192;-74
2022/08/29 05:49:36;;;;;;;0.10;0.10;;;13.10;99.90;12.30;97596.00;;;;4992711;28;20236;-75
2022/08/29 05:52:06;;;;;;;0.03;0.03;;;13.10;99.90;12.40;97611.00;;;;4992569;28;20196;-74
2022/08/29 05:54:37;;;;;;;0.10;0.10;;;13.30;99.90;12.40;97606.00;;;;4992805;28;20201;-75
2022/08/29 05:57:06;;;;;;;0.10;0.10;;;13.20;99.90;12.50;97621.00;;;;4993869;28;20284;-74
2022/08/29 05:59:35;;;;;;;0.10;0.10;;;13.40;99.90;12.40;97613.00;;;;4992802;28;20223;-74
2022/08/29 06:02:07;;;;;;;0.10;0.10;;;13.30;99.90;12.50;97611.00;;;;4993856;28;20185;-74
2022/08/29 06:04:36;;;;;;;0.00;0.00;;;13.40;99.90;12.50;97602.00;;;;4992649;28;20207;-74
2022/08/29 06:07:05;;;;;;;0.00;0.00;;;13.40;99.90;12.60;97612.00;;;;4993447;28;20284;-77
2022/08/29 06:09:35;;;;;;;0.00;0.00;;;13.50;99.90;12.70;97603.00;;;;4992751;28;20220;-74
2022/08/29 06:12:04;;;;;;;0.00;0.00;;;13.50;99.90;12.70;97615.00;;;;4992434;28;20201;-75
2022/08/29 06:14:33;;;;;;;0.00;0.00;;;13.60;99.90;12.60;97548.00;;;;4992647;28;20231;-74
2022/08/29 06:17:03;;;;;;;0.10;0.10;;;13.50;99.90;12.70;97609.00;;;;4992463;28;20192;-74
2022/08/29 06:19:33;;;;;;;0.10;0.10;;;13.60;99.90;12.90;97605.00;;;;4993548;28;20220;-77
2022/08/29 06:22:02;;;;;;;0.00;0.00;;;13.70;99.90;13.10;97618.00;;;;4992526;28;20718;-74
2022/08/29 06:24:38;;;;;;;0.08;0.08;;;13.90;99.90;13.20;97616.00;;;;4993046;28;20756;-74
2022/08/29 06:27:07;;;;;;;0.00;0.00;;;14.00;99.90;13.30;97623.00;;;;4992431;28;20207;-74
2022/08/29 06:29:35;;;;;;;0.00;0.00;;;14.00;99.90;13.30;97630.00;;;;4991939;28;20605;-74
2022/08/29 06:32:10;;;;;;;0.00;0.00;;;14.10;99.90;13.40;97630.00;;;;4992511;28;20192;-74
2022/08/29 06:34:40;;;;;;;0.00;0.00;;;14.20;99.90;13.40;97630.00;;;;4992442;28;20199;-74
2022/08/29 06:37:08;;;;;;;0.10;0.10;;;14.10;99.90;13.40;97625.00;;;;4992923;28;20587;-74
2022/08/29 06:39:36;;;;;;;0.05;0.05;;;14.20;99.90;13.50;97617.00;;;;4992593;28;20213;-75
2022/08/29 06:42:04;;;;;;;0.00;0.00;;;14.30;99.90;13.70;97619.00;;;;4992452;28;20197;-74
2022/08/29 06:44:33;;;;;;;0.10;0.10;;;14.40;99.90;13.70;97625.00;;;;5002289;28;20271;-74
2022/08/29 06:47:02;;;;;;;0.00;0.00;;;14.40;99.90;13.70;97625.00;;;;4996115;28;20192;-74
2022/08/29 06:49:31;;;;;;;0.00;0.00;;;14.40;99.90;13.70;97638.00;;;;4995494;28;20724;-74
2022/08/29 06:52:00;;;;;;;0.10;0.10;;;14.50;99.90;13.80;97635.00;;;;4996044;28;20200;-74
2022/08/29 06:54:29;;;;;;;0.00;0.00;;;14.60;99.90;13.90;97632.00;;;;4995948;28;20660;-74
2022/08/29 06:56:58;;;;;;;0.00;0.00;;;14.60;99.90;14.00;97579.00;;;;4995718;28;20203;-74
2022/08/29 06:59:27;;;;;;;0.00;0.00;;;14.70;99.90;14.20;97624.00;;;;4995273;28;20216;-74
2022/08/29 07:01:55;;;;;;;0.10;0.10;;;14.80;99.90;14.30;97621.00;;;;4995832;28;20197;-75
2022/08/29 07:04:23;;;;;;;0.08;0.08;;;14.90;99.90;14.50;97617.00;;;;4995555;28;20188;-74
2022/08/29 07:06:53;;;;;;;0.00;0.00;;;15.10;99.90;14.60;97632.00;;;;4995557;28;20203;-74
2022/08/29 07:09:24;;;;;;;0.00;0.00;;;15.20;99.90;14.80;97606.00;;;;4995858;28;20224;-74
2022/08/29 07:11:53;;;;;;;0.00;0.00;;;15.40;99.90;14.80;97607.00;;;;4977788;28;20591;-74
2022/08/29 07:14:21;;;;;;;0.00;0.00;;;15.50;99.90;14.90;97612.00;;;;4976139;28;20216;-74
2022/08/29 07:16:49;;;;;;;0.00;0.00;;;15.60;99.90;15.10;97616.00;;;;4975709;28;20541;-75
2022/08/29 07:19:17;;;;;;;0.00;0.00;;;15.70;99.90;15.20;97591.00;;;;4975414;28;20213;-74
2022/08/29 07:21:47;;;;;;;0.00;0.00;;;15.80;99.90;15.30;97609.00;;;;4975854;28;20197;-74
2022/08/29 07:24:15;;;;;;;0.10;0.10;;;15.90;99.90;15.40;97610.00;;;;4975868;28;20198;-74
2022/08/29 07:26:44;;;;;;;0.00;0.00;;;16.00;99.90;15.50;97609.00;;;;4976270;28;20714;-75
2022/08/29 07:29:17;;;;;;;0.00;0.00;;;16.10;99.90;15.60;97618.00;;;;4975955;28;20283;-75
2022/08/29 07:31:47;;;;;;;0.00;0.00;;;16.20;99.90;15.70;97621.00;;;;4976171;28;20232;-73
2022/08/29 07:34:15;;;;;;;0.00;0.00;;;16.30;99.90;15.80;97561.00;;;;4977929;28;20189;-76
2022/08/29 07:36:48;;;;;;;0.00;0.00;;;16.40;99.90;15.80;97609.00;;;;4975727;28;20244;-74
2022/08/29 07:39:19;;;;;;;0.00;0.00;;;16.50;99.90;15.80;97613.00;;;;4976245;28;20209;-74
2022/08/29 07:41:49;;;;;;;0.00;0.00;;;16.50;99.90;16.00;97637.00;;;;4979120;28;20212;-75
2022/08/29 07:44:18;;;;;;;0.00;0.00;;;16.60;99.90;16.00;97647.00;;;;4975819;28;20193;-76
2022/08/29 07:46:47;;;;;;;0.00;0.00;;;16.60;99.90;16.10;97616.00;;;;4976051;28;20287;-74
2022/08/29 07:49:15;;;;;;;0.00;0.00;;;16.80;99.90;16.30;97624.00;;;;4975689;28;20220;-76
2022/08/29 07:51:43;;;;;;;0.08;0.08;;;16.90;99.90;16.30;97636.00;;;;4976083;28;20680;-74
2022/08/29 07:54:15;;;;;;;0.00;0.00;;;17.00;99.90;16.50;97632.00;;;;4975791;28;20617;-75
2022/08/29 07:56:43;;;;;;;0.00;0.00;;;17.10;99.90;16.60;97640.00;;;;4974560;28;20594;-74
2022/08/29 07:59:13;;;;;;;0.00;0.00;;;17.20;99.90;16.70;97629.00;;;;4974956;28;20696;-74
2022/08/29 08:01:41;;;;;;;0.00;0.00;;;17.30;99.90;16.80;97601.00;;;;4990106;28;20212;-74
2022/08/29 08:04:11;;;;;;;0.00;0.00;;;17.40;99.90;16.90;97651.00;;;;4994092;28;20684;-74
2022/08/29 08:06:42;;;;;;;0.00;0.00;;;17.50;99.90;17.00;97607.00;;;;4978398;28;20567;-75
2022/08/29 08:09:12;;;;;;;0.03;0.03;;;17.60;99.90;17.10;97641.00;;;;4976600;28;20256;-74
2022/08/29 08:11:42;;;;;;;0.00;0.00;;;17.70;99.90;17.20;97644.00;;;;4983087;28;20232;-74
2022/08/29 08:14:12;;;;;;;0.00;0.00;;;17.80;99.90;17.30;97640.00;;;;4988411;28;20200;-74
2022/08/29 08:16:41;;;;;;;0.00;0.00;;;17.90;99.90;17.40;97633.00;;;;4994990;28;20215;-74
2022/08/29 08:19:12;;;;;;;0.00;0.00;;;18.00;99.90;17.50;97637.00;;;;4995929;28;20234;-75
2022/08/29 08:21:43;;;;;;;0.00;0.00;;;18.10;99.90;17.80;97647.00;;;;4982923;28;20208;-75
2022/08/29 08:24:17;;;;;;;0.00;0.00;;;18.30;99.90;17.90;97641.00;;;;4992010;28;20258;-74
2022/08/29 08:26:47;;;;;;;0.00;0.00;;;18.50;99.90;17.90;97407.00;;;;4996567;28;20205;-75
2022/08/29 08:29:17;;;;;;;0.00;0.00;;;18.60;99.90;18.10;97407.00;;;;4993475;28;20459;-75
2022/08/29 08:31:47;;;;;;;0.00;0.00;;;18.70;99.90;18.10;97394.00;;;;4992383;28;20224;-74
2022/08/29 08:34:16;;;;;;;0.00;0.00;;;18.80;99.90;18.10;97427.00;;;;4993535;28;20192;-74
2022/08/29 08:36:45;;;;;;;0.00;0.00;;;18.90;99.90;18.20;97390.00;;;;4993723;28;20664;-74
2022/08/29 08:39:14;;;;;;;0.00;0.00;;;19.00;99.90;18.40;97432.00;;;;4993388;28;20291;-75
2022/08/29 08:41:55;;;;;;;0.00;0.00;;;19.10;99.90;18.30;97400.00;;;;4993967;28;20251;-74
2022/08/29 08:45:02;;;;;;;0.00;0.00;;;19.10;99.90;18.40;97383.00;;;;4993920;28;20210;-75
2022/08/29 08:47:36;;;;;;;0.00;0.00;;;19.20;99.90;18.60;97427.00;;;;4993864;28;20204;-75
2022/08/29 08:50:16;;;;;;;0.00;0.00;;;19.30;99.90;18.60;97410.00;;;;4993932;28;20285;-75
2022/08/29 08:52:53;;;;;;;0.00;0.00;;;19.40;99.90;18.90;97410.00;;;;4994390;28;20311;-76
2022/08/29 08:55:33;;;;;;;0.00;0.00;;;19.50;99.90;18.80;97431.00;;;;4993827;28;20188;-75
2022/08/29 08:58:12;;;;;;;0.00;0.00;;;19.50;99.90;18.80;97323.00;;;;4993123;28;20226;-75
2022/08/29 09:00:50;;;;;;;0.00;0.00;;;19.70;99.90;18.90;97257.00;;;;4993315;28;20675;-75
2022/08/29 09:03:53;;;;;;;0.00;0.00;;;19.70;99.90;19.00;97388.00;;;;4993152;28;20188;-76
2022/08/29 09:06:38;;;;;;;0.00;0.00;;;19.70;99.90;19.10;97403.00;;;;4994974;28;20205;-75
2022/08/29 09:09:24;;;;;;;0.00;0.00;;;19.80;99.90;19.10;97378.00;;;;5000480;28;20216;-74
2022/08/29 09:12:05;;;;;;;0.00;0.00;;;19.80;99.90;19.30;97367.00;;;;4999214;28;20227;-74
2022/08/29 09:14:53;;;;;;;0.00;0.00;;;20.10;99.90;19.60;97402.00;;;;5003603;28;20207;-75
2022/08/29 09:17:31;;;;;;;0.00;0.00;;;20.30;99.90;19.70;97409.00;;;;4999232;28;20199;-75
2022/08/29 09:20:09;;;;;;;0.00;0.00;;;20.50;99.90;19.90;97403.00;;;;4993706;28;20227;-77
2022/08/29 09:22:41;;;;;;;0.00;0.00;;;20.60;99.90;20.10;97446.00;;;;4994202;28;20195;-76
2022/08/29 09:25:13;;;;;;;0.00;0.00;;;20.70;99.90;20.10;97407.00;;;;4993305;28;20192;-76
2022/08/29 09:27:41;;;;;;;0.00;0.00;;;20.90;99.90;20.30;97457.00;;;;4993969;28;20207;-76
2022/08/29 09:30:14;;;;;;;0.00;0.00;;;20.90;99.90;20.20;97410.00;;;;4992861;28;20200;-77
2022/08/29 09:32:59;;;;;;;0.00;0.00;;;21.00;99.90;20.10;97404.00;;;;4986601;28;20324;-76
2022/08/29 09:35:35;;;;;;;0.00;0.00;;;20.90;99.90;20.20;97478.00;;;;4982271;28;20207;-76
2022/08/29 09:38:07;;;;;;;0.00;0.00;;;20.90;99.90;20.20;97465.00;;;;4992922;28;20227;-76
2022/08/29 09:40:54;;;;;;;0.00;0.00;;;20.90;99.90;20.10;97448.00;;;;4992873;28;20206;-76
2022/08/29 09:43:28;;;;;;;0.00;0.00;;;20.70;99.90;20.20;97514.00;;;;4992538;28;20207;-76
2022/08/29 09:46:19;;;;;;;0.00;0.00;;;20.80;99.90;20.50;97512.00;;;;4992963;28;20184;-76
2022/08/29 09:48:52;;;;;;;0.00;0.00;;;21.00;99.90;20.40;97520.00;;;;4991516;28;20228;-76
2022/08/29 09:51:25;;;;;;;0.00;0.00;;;21.00;99.90;20.50;97513.00;;;;4992909;28;20201;-76
2022/08/29 09:54:10;;;;;;;0.00;0.00;;;21.10;99.90;20.70;97515.00;;;;4993108;28;20575;-76
2022/08/29 09:56:51;;;;;;;0.00;0.00;;;21.20;99.90;20.80;97534.00;;;;4992979;28;20188;-76
2022/08/29 09:59:27;;;;;;;0.00;0.00;;;21.30;99.90;20.70;97502.00;;;;4992440;28;20223;-76
2022/08/29 10:02:19;;;;;;;0.00;0.00;;;21.30;99.90;20.70;97411.00;;;;4992785;28;20209;-76
2022/08/29 10:04:53;;;;;;;0.00;0.00;;;21.30;99.90;20.90;97419.00;;;;4995569;28;20192;-76
2022/08/29 10:07:25;;;;;;;0.00;0.00;;;21.50;99.90;21.00;97387.00;;;;4996347;28;20279;-76
2022/08/29 10:10:02;;;;;;;0.00;0.00;;;21.60;99.90;21.10;97383.00;;;;4993365;28;20239;-75
2022/08/29 10:12:47;;;;;;;0.00;0.00;;;21.70;99.90;21.50;97395.00;;;;4992659;28;20228;-76
2022/08/29 10:15:24;;;;;;;0.00;0.00;;;21.90;99.90;21.70;97366.00;;;;4992360;28;20196;-76
2022/08/29 10:18:23;;;;;;;0.00;0.00;;;22.10;99.90;21.80;97405.00;;;;4992401;28;20270;-76
2022/08/29 10:21:09;;;;;;;0.00;0.00;;;22.30;99.90;21.80;97428.00;;;;4995515;28;20192;-75
2022/08/29 10:23:53;;;;;;;0.00;0.00;;;22.30;99.90;22.00;97443.00;;;;4995214;28;20204;-76
2022/08/29 10:26:35;;;;;;;0.00;0.00;;;22.40;99.90;22.30;97462.00;;;;4996464;28;20705;-76
2022/08/29 10:29:18;;;;;;;0.00;0.00;;;22.60;99.90;22.50;97471.00;;;;4996272;28;20311;-76
2022/08/29 10:32:00;;;;;;;0.00;0.00;;;22.80;99.90;22.50;97440.00;;;;4996436;28;20195;-76
2022/08/29 10:34:51;;;;;;;0.00;0.00;;;22.90;99.90;22.30;97452.00;;;;4995249;28;20200;-76
2022/08/29 10:37:32;;;;;;;0.00;0.00;;;22.80;99.90;22.30;97466.00;;;;4987357;28;20201;-76
2022/08/29 10:40:08;;;;;;;0.00;0.00;;;22.70;99.90;22.50;97467.00;;;;4984915;28;20212;-76
2022/08/29 10:42:41;;;;;;;0.00;0.00;;;22.90;99.90;22.40;97494.00;;;;4979441;28;20207;-75
2022/08/29 10:45:17;;;;;;;0.00;0.00;;;22.80;99.90;22.60;97471.00;;;;4997209;28;20200;-76
2022/08/29 10:47:58;;;;;;;0.00;0.00;;;23.00;99.90;22.70;97494.00;;;;4994572;28;20196;-76
2022/08/29 10:50:39;;;;;;;0.00;0.00;;;23.00;99.90;23.20;97510.00;;;;4995949;28;20196;-75
2022/08/29 10:53:20;;;;;;;0.00;0.00;;;23.30;99.90;22.70;97479.00;;;;4996250;28;20663;-76
2022/08/29 10:55:55;;;;;;;0.00;0.00;;;23.20;99.90;22.80;97462.00;;;;4994738;28;20215;-76
2022/08/29 10:58:38;;;;;;;0.00;0.00;;;23.20;99.90;22.70;97430.00;;;;4995553;28;20247;-76
2022/08/29 11:01:21;;;;;;;0.00;0.00;;;23.30;99.90;23.00;97452.00;;;;4995907;28;20188;-76
2022/08/29 11:04:09;;;;;;;0.00;0.00;;;23.40;99.90;23.10;97443.00;;;;4995543;28;20192;-76
2022/08/29 11:06:46;;;;;;;0.00;0.00;;;23.60;99.90;23.40;97459.00;;;;4995504;28;20207;-76
2022/08/29 11:09:22;;;;;;;0.00;0.00;;;23.80;99.90;23.60;97459.00;;;;4996499;28;20209;-76
2022/08/29 11:12:07;;;;;;;0.00;0.00;;;23.90;99.90;23.70;97463.00;;;;5003349;28;20192;-74
2022/08/29 11:14:40;;;;;;;0.00;0.00;;;24.00;99.90;24.00;97438.00;;;;4998827;28;20196;-74
2022/08/29 11:17:16;;;;;;;0.00;0.00;;;24.20;99.90;24.40;97480.00;;;;4996849;28;20566;-74
2022/08/29 11:19:59;;;;;;;0.00;0.00;;;24.50;99.90;24.60;97400.00;;;;4996058;28;20703;-74